Time;durP1;ratioP1;P1;durP2;ratioP2;P2;SDS_P1;SDS_P2;PMS_P1;PMS_P2;Temp;Humidity;BMP_temperature;BMP_pressure;BME280_temperature;BME280_humidity;BME280_pressure;Samples;Min_cycle;Max_cycle;Signal;HPM_P1;HPM_P2
2022/04/21 00:02:24;;;;;;;13.37;8.57;;;;;;;3.92;100.00;99231.34;5038528;28;20573;-90
2022/04/21 00:04:50;;;;;;;14.93;9.57;;;;;;;1.18;100.00;98790.25;5037817;28;20242;-91
2022/04/21 00:07:15;;;;;;;13.83;9.27;;;;;;;3.41;100.00;99145.25;5037788;28;20170;-91
2022/04/21 00:09:41;;;;;;;11.93;7.87;;;;;;;3.33;100.00;99141.38;5037105;28;20177;-90
2022/04/21 00:12:07;;;;;;;14.23;9.27;;;;;;;4.45;100.00;99339.25;5037904;28;20556;-92
2022/04/21 00:14:32;;;;;;;13.10;8.43;;;;;;;2.78;100.00;99057.63;5037826;28;20177;-91
2022/04/21 00:16:58;;;;;;;13.73;8.97;;;;;;;4.64;100.00;99357.22;5038016;28;20201;-92
2022/04/21 00:19:23;;;;;;;12.90;8.23;;;;;;;4.59;100.00;99346.00;5038919;28;20253;-90
2022/04/21 00:24:32;;;;;;;13.33;8.53;;;;;;;3.85;100.00;99191.63;5039600;28;20188;-92
2022/04/21 00:26:58;;;;;;;10.97;7.77;;;;;;;4.61;100.00;99347.88;5038395;28;20417;-91
2022/04/21 00:29:23;;;;;;;13.43;8.77;;;;;;;2.96;100.00;99033.91;5038422;28;20217;-92
2022/04/21 00:31:49;;;;;;;13.13;8.40;;;;;;;4.75;100.00;99352.13;5039401;28;20229;-91
2022/04/21 00:34:18;;;;;;;13.23;8.17;;;;;;;3.12;100.00;99068.28;5044261;28;20279;-89
2022/04/21 00:36:44;;;;;;;13.27;9.03;;;;;;;4.91;100.00;99368.19;5043958;28;20190;-91
2022/04/21 00:39:10;;;;;;;11.43;7.47;;;;;;;3.69;100.00;99148.81;5038397;28;20508;-90
2022/04/21 00:41:35;;;;;;;13.83;7.60;;;;;;;4.07;100.00;99217.31;5037096;28;20447;-91
2022/04/21 00:44:01;;;;;;;13.07;8.00;;;;;;;4.76;100.00;99322.91;5038000;28;20232;-91
2022/04/21 00:46:27;;;;;;;13.07;7.40;;;;;;;4.85;100.00;99356.09;5037533;28;20186;-92
2022/04/21 00:48:54;;;;;;;12.07;7.03;;;;;;;4.94;100.00;99355.84;5037478;28;20170;-91
2022/04/21 00:51:20;;;;;;;14.13;8.33;;;;;;;4.93;100.00;99352.44;5036910;28;20496;-91
2022/04/21 00:53:45;;;;;;;10.90;7.60;;;;;;;4.29;100.00;99258.78;5037149;28;20799;-91
2022/04/21 00:56:12;;;;;;;11.97;7.13;;;;;;;4.03;100.00;99202.88;5037961;28;20200;-91
2022/04/21 00:58:41;;;;;;;12.57;8.40;;;;;;;3.89;100.00;99221.13;5036712;28;20181;-91
2022/04/21 01:02:46;;;;;;;13.47;7.60;;;;;;;4.93;100.00;99369.13;5037901;28;20486;-90
2022/04/21 01:03:53;;;;;;;14.07;8.17;;;;;;;3.76;100.00;99198.53;5038932;28;20874;-91
2022/04/21 01:06:19;;;;;;;16.00;8.23;;;;;;;3.23;100.00;99101.50;5036908;28;20444;-91
2022/04/21 01:08:44;;;;;;;13.17;8.00;;;;;;;4.86;100.00;99380.44;5039464;28;20166;-91
2022/04/21 01:11:10;;;;;;;13.53;8.53;;;;;;;1.15;100.00;98777.56;5037295;28;20174;-90
2022/04/21 01:13:35;;;;;;;14.93;9.33;;;;;;;4.89;100.00;99398.16;5036607;28;20235;-91
2022/04/21 01:16:01;;;;;;;16.57;8.90;;;;;;;4.75;100.00;99371.34;5036571;28;20235;-90
2022/04/21 01:18:27;;;;;;;12.07;7.60;;;;;;;3.03;100.00;99095.16;5037270;28;20231;-91
2022/04/21 01:20:53;;;;;;;14.73;8.83;;;;;;;2.65;100.00;99035.09;5042238;28;20201;-91
2022/04/21 01:23:18;;;;;;;12.03;7.47;;;;;;;4.74;100.00;99419.72;5045065;28;20786;-90
2022/04/21 01:25:44;;;;;;;11.43;7.13;;;;;;;4.83;100.00;99372.69;5039481;28;20231;-91
2022/04/21 01:28:12;;;;;;;15.60;8.50;;;;;;;4.89;100.00;99389.78;5037446;28;20181;-90
2022/04/21 01:30:38;;;;;;;12.00;7.47;;;;;;;4.90;100.00;99404.03;5038282;28;20173;-91
2022/04/21 01:33:04;;;;;;;14.47;8.90;;;;;;;0.10;100.00;98571.75;5043274;28;20409;-91
2022/04/21 01:35:30;;;;;;;15.77;8.87;;;;;;;3.23;100.00;99094.00;5040343;28;20467;-92
2022/04/21 01:43:23;;;;;;;9.27;6.17;;;;;;;4.09;100.00;99228.28;5037955;28;20439;-92
2022/04/21 01:45:49;;;;;;;9.57;6.07;;;;;;;4.40;100.00;99250.31;5037490;28;20381;-91
2022/04/21 01:48:15;;;;;;;11.33;6.03;;;;;;;4.64;100.00;99256.94;5036465;28;20177;-91
2022/04/21 01:50:40;;;;;;;10.23;6.63;;;;;;;5.27;100.00;99356.31;5035747;28;20224;-91
2022/04/21 01:53:06;;;;;;;9.43;5.60;;;;;;;5.09;100.00;99324.19;5034667;28;20184;-91
2022/04/21 01:55:31;;;;;;;9.67;5.13;;;;;;;5.24;100.00;99395.44;5034586;28;20217;-91
2022/04/21 01:57:57;;;;;;;9.63;6.87;;;;;;;5.18;100.00;99350.75;5036197;28;20281;-92
2022/04/21 02:00:23;;;;;;;10.57;6.27;;;;;;;5.23;100.00;99392.06;5041826;28;20244;-92
2022/04/21 02:02:48;;;;;;;9.37;6.43;;;;;;;5.29;100.00;99384.91;5043287;28;20177;-92
2022/04/21 02:05:14;;;;;;;10.60;7.47;;;;;;;4.57;100.00;99247.28;5043372;28;20427;-91
2022/04/21 02:07:42;;;;;;;11.67;7.40;;;;;;;1.20;100.00;98680.72;5042846;28;20170;-91
2022/04/21 02:10:07;;;;;;;12.40;7.67;;;;;;;3.14;100.00;99029.22;5043570;28;20180;-91
2022/04/21 02:12:33;;;;;;;11.80;7.80;;;;;;;3.79;100.00;99167.84;5047988;28;20423;-91
2022/04/21 02:15:01;;;;;;;11.93;7.40;;;;;;;3.19;100.00;99047.91;5046466;28;20182;-91
2022/04/21 02:17:28;;;;;;;12.67;7.90;;;;;;;2.19;100.00;98895.38;5046644;28;20241;-91
2022/04/21 02:19:53;;;;;;;14.63;6.90;;;;;;;4.95;100.00;99386.03;5046825;28;20508;-91
2022/04/21 02:22:19;;;;;;;11.87;7.50;;;;;;;1.75;100.00;98843.31;5042940;28;20446;-92
2022/04/21 02:24:44;;;;;;;13.10;7.53;;;;;;;3.92;100.00;99196.28;5041501;28;20196;-91
2022/04/21 02:27:09;;;;;;;13.87;8.80;;;;;;;4.80;100.00;99337.38;5040337;28;20671;-91
2022/04/21 02:29:35;;;;;;;15.77;9.00;;;;;;;-0.06;100.00;98494.34;5040894;28;20221;-92
2022/04/21 02:32:01;;;;;;;16.77;9.90;;;;;;;3.24;100.00;99071.56;5047331;28;20192;-92
2022/04/21 02:34:28;;;;;;;14.50;9.40;;;;;;;1.11;100.00;98735.78;5045416;28;20253;-92
2022/04/21 02:36:55;;;;;;;18.43;10.60;;;;;;;2.07;100.00;98872.06;5042856;28;20494;-91
2022/04/21 02:39:20;;;;;;;16.80;10.17;;;;;;;0.37;100.00;98625.06;5040661;28;20417;-91
2022/04/21 02:41:46;;;;;;;16.10;10.43;;;;;;;3.18;100.00;99075.31;5041154;28;20773;-91
2022/04/21 02:44:11;;;;;;;16.37;9.87;;;;;;;0.82;100.00;98679.72;5040854;28;20174;-92
2022/04/21 02:46:37;;;;;;;16.33;9.30;;;;;;;1.85;100.00;98883.81;5041473;28;20232;-93
2022/04/21 02:49:03;;;;;;;18.60;11.13;;;;;;;1.69;100.00;98870.31;5042043;28;20181;-91
2022/04/21 02:51:32;;;;;;;24.30;13.13;;;;;;;2.11;100.00;98941.41;5042031;28;20185;-92
2022/04/21 02:59:27;;;;;;;48.37;22.67;;;;;;;4.03;100.00;99288.00;5039341;28;20426;-91
2022/04/21 03:01:52;;;;;;;52.60;25.00;;;;;;;4.17;100.00;99319.00;5039871;28;20804;-92
2022/04/21 03:04:18;;;;;;;41.03;20.13;;;;;;;3.69;100.00;99233.91;5040464;28;20425;-93
2022/04/21 03:06:43;;;;;;;37.83;20.07;;;;;;;3.86;100.00;99282.63;5039161;28;20177;-92
2022/04/21 03:09:08;;;;;;;44.07;22.20;;;;;;;3.72;100.00;99263.28;5038088;28;20241;-91
2022/04/21 03:11:34;;;;;;;35.77;19.87;;;;;;;3.25;100.00;99193.38;5039102;28;20193;-91
2022/04/21 03:13:59;;;;;;;43.80;22.30;;;;;;;4.00;100.00;99342.91;5039386;28;20182;-92
2022/04/21 03:16:25;;;;;;;40.73;21.83;;;;;;;2.96;100.00;99168.91;5043139;28;20198;-92
2022/04/21 03:18:50;;;;;;;34.97;20.13;;;;;;;1.67;100.00;98953.28;5044606;28;20201;-92
2022/04/21 03:26:43;;;;;;;55.10;28.23;;;;;;;2.92;100.00;99186.94;5048176;28;20431;-92
2022/04/21 03:29:09;;;;;;;49.77;24.60;;;;;;;4.03;100.00;99384.81;5049750;28;20413;-91
2022/04/21 03:31:35;;;;;;;43.17;21.00;;;;;;;3.61;100.00;99290.09;5049660;28;20166;-91
2022/04/21 03:34:02;;;;;;;32.53;18.70;;;;;;;0.32;100.00;98771.59;5049675;28;20170;-92
2022/04/21 03:36:28;;;;;;;30.63;16.83;;;;;;;0.62;100.00;98769.56;5052809;28;20231;-91
2022/04/21 03:38:54;;;;;;;31.27;16.67;;;;;;;3.98;100.00;99349.41;5050757;28;20440;-91
2022/04/21 03:41:22;;;;;;;32.53;16.97;;;;;;;1.77;100.00;99003.06;5051724;28;20170;-92
2022/04/21 03:43:48;;;;;;;28.03;14.70;;;;;;;-1.44;100.00;98441.22;5048942;28;20170;-92
2022/04/21 03:46:14;;;;;;;23.20;13.57;;;;;;;-1.19;100.00;98491.94;5048722;28;20413;-92
2022/04/21 03:48:39;;;;;;;22.83;13.17;;;;;;;3.81;100.00;99399.13;5046099;28;20174;-92
2022/04/21 03:51:05;;;;;;;24.60;13.10;;;;;;;-1.30;100.00;98502.69;5047474;28;20229;-92
2022/04/21 03:53:31;;;;;;;23.50;13.73;;;;;;;-0.65;100.00;98594.44;5051885;28;20189;-92
2022/04/21 03:55:57;;;;;;;24.30;13.63;;;;;;;-0.70;100.00;98618.97;5046010;28;20212;-92
2022/04/21 03:58:22;;;;;;;25.87;14.57;;;;;;;-0.91;100.00;98550.34;5047869;28;20182;-93
2022/04/21 04:00:48;;;;;;;28.97;15.93;;;;;;;0.43;100.00;98770.75;5053681;28;20404;-91
2022/04/21 04:03:15;;;;;;;27.97;16.37;;;;;;;-1.18;100.00;98493.63;5054008;28;20260;-91
2022/04/21 04:05:40;;;;;;;33.67;17.73;;;;;;;-1.30;100.00;98453.03;5047945;28;20201;-91
2022/04/21 04:10:53;;;;;;;62.60;28.50;;;;;;;-0.55;100.00;98538.84;5047741;28;20197;-93
2022/04/21 04:13:23;;;;;;;33.93;18.50;;;;;;;1.70;100.00;98871.19;5042123;28;20405;-92
2022/04/21 04:15:51;;;;;;;39.97;19.20;;;;;;;3.04;100.00;99096.03;5044460;28;20194;-91
2022/04/21 04:18:21;;;;;;;44.50;20.53;;;;;;;3.47;100.00;99189.06;5047368;28;20425;-92
2022/04/21 04:20:47;;;;;;;46.70;22.33;;;;;;;2.00;100.00;98937.31;5028592;28;20502;-92
2022/04/21 04:23:20;;;;;;;39.97;22.10;;;;;;;-0.52;100.00;98486.88;5025769;28;20446;-90
2022/04/21 04:25:46;;;;;;;40.33;20.30;;;;;;;4.49;100.00;99298.56;5021947;28;20440;-91
2022/04/21 04:28:11;;;;;;;35.83;19.40;;;;;;;4.61;100.00;99286.81;5034232;28;20610;-90
2022/04/21 04:30:38;;;;;;;41.70;19.73;;;;;;;3.81;100.00;99142.13;5038832;28;20181;-92
2022/04/21 04:33:05;;;;;;;39.33;21.83;;;;;;;4.16;100.00;99230.44;5042627;28;20189;-89
2022/04/21 04:35:31;;;;;;;41.10;22.20;;;;;;;1.55;100.00;98772.84;5048869;28;20471;-91
2022/04/21 04:37:58;;;;;;;37.30;20.47;;;;;;;0.69;100.00;98638.13;5045095;28;20440;-92
2022/04/21 04:40:25;;;;;;;47.37;22.87;;;;;;;1.38;100.00;98723.44;5025372;28;20445;-91
2022/04/21 04:42:53;;;;;;;53.70;28.47;;;;;;;2.61;100.00;98907.34;5040658;28;20439;-92
2022/04/21 04:48:04;;;;;;;54.87;33.73;;;;;;;3.71;100.00;99032.13;5040125;28;20528;-92
2022/04/21 04:50:30;;;;;;;86.53;43.57;;;;;;;5.48;100.00;99381.06;5040107;28;20490;-91
2022/04/21 04:52:57;;;;;;;78.30;42.60;;;;;;;3.63;100.00;99088.34;5039450;28;20227;-91
2022/04/21 04:55:23;;;;;;;43.67;25.97;;;;;;;0.72;100.00;98582.69;5045411;28;20194;-94
2022/04/21 04:57:50;;;;;;;37.57;19.80;;;;;;;1.40;100.00;98645.50;5048632;28;20432;-92
2022/04/21 05:00:16;;;;;;;30.43;17.27;;;;;;;3.96;100.00;99047.97;5039349;28;20424;-92
2022/04/21 05:02:41;;;;;;;30.10;17.10;;;;;;;1.10;100.00;98584.50;5039583;28;20432;-91
2022/04/21 05:05:08;;;;;;;26.17;15.40;;;;;;;1.24;100.00;98607.84;5039186;28;20523;-92
2022/04/21 05:07:35;;;;;;;23.67;13.30;;;;;;;3.55;100.00;98985.25;5038669;28;20186;-90
2022/04/21 05:10:01;;;;;;;25.53;13.70;;;;;;;3.78;100.00;99094.38;5037143;28;20431;-92
2022/04/21 05:12:26;;;;;;;28.03;16.20;;;;;;;3.17;100.00;98924.41;5037764;28;20433;-94
2022/04/21 05:14:52;;;;;;;27.90;17.43;;;;;;;3.65;100.00;98976.72;5040110;28;20444;-91
2022/04/21 05:17:18;;;;;;;29.50;16.97;;;;;;;5.84;100.00;99361.59;5039317;28;20564;-92
2022/04/21 05:19:45;;;;;;;30.53;18.47;;;;;;;1.57;100.00;98625.03;5038058;28;20544;-92
2022/04/21 05:22:13;;;;;;;30.03;17.40;;;;;;;4.02;100.00;99090.06;5025914;28;20233;-90
2022/04/21 05:24:39;;;;;;;32.40;18.53;;;;;;;3.30;100.00;98939.44;5035568;28;20436;-90
2022/04/21 05:27:04;;;;;;;28.33;16.83;;;;;;;5.69;100.00;99372.34;5033113;28;20967;-92
2022/04/21 05:32:20;;;;;;;32.67;17.37;;;;;;;6.00;100.00;99333.28;5036676;28;20244;-92
2022/04/21 05:34:46;;;;;;;41.73;23.57;;;;;;;6.69;100.00;99409.50;5036002;28;20421;-91
2022/04/21 05:37:12;;;;;;;28.23;17.20;;;;;;;5.62;100.00;99229.63;5035212;28;20490;-90
2022/04/21 05:39:37;;;;;;;33.00;19.37;;;;;;;6.78;100.00;99404.16;5035999;28;20504;-90
2022/04/21 05:42:06;;;;;;;44.27;25.07;;;;;;;3.24;100.00;98773.13;5043278;28;20193;-90
2022/04/21 05:44:31;;;;;;;36.87;21.47;;;;;;;2.49;100.00;98690.09;5039249;28;20190;-89
2022/04/21 05:47:01;;;;;;;35.53;20.17;;;;;;;5.91;100.00;99190.41;5040439;28;20444;-90
2022/04/21 05:49:27;;;;;;;26.57;15.03;;;;;;;4.99;100.00;99073.56;5043464;28;20741;-90
2022/04/21 05:51:53;;;;;;;20.07;12.60;;;;;;;6.30;100.00;99413.03;5039632;28;20481;-89
2022/04/21 05:54:18;;;;;;;20.00;11.83;;;;;;;4.56;100.00;99133.59;5040131;28;20516;-90
2022/04/21 05:56:44;;;;;;;19.17;11.13;;;;;;;4.79;100.00;99175.16;5044741;28;20714;-89
2022/04/21 05:59:10;;;;;;;19.73;11.30;;;;;;;4.25;100.00;99101.53;5042438;28;20329;-90
2022/04/21 06:01:36;;;;;;;19.30;10.70;;;;;;;4.31;100.00;99147.03;5040236;28;20692;-88
2022/04/21 06:04:02;;;;;;;24.63;13.90;;;;;;;3.04;100.00;98826.00;5035730;28;20186;-89
2022/04/21 06:06:27;;;;;;;32.07;16.33;;;;;;;6.78;100.00;99424.28;5035569;28;20178;-88
2022/04/21 06:08:53;;;;;;;34.97;17.77;;;;;;;4.96;100.00;99111.00;5036269;28;20947;-88
2022/04/21 06:11:18;;;;;;;29.27;15.97;;;;;;;6.45;100.00;99267.25;5037998;28;20256;-87
2022/04/21 06:13:43;;;;;;;29.20;16.53;;;;;;;5.99;100.00;99162.38;5036499;28;20190;-88
2022/04/21 06:16:09;;;;;;;29.67;16.87;;;;;;;5.36;100.00;98980.44;5035072;28;20210;-87
2022/04/21 06:18:36;;;;;;;22.93;14.73;;;;;;;7.95;100.00;99387.28;5035781;28;20188;-87
2022/04/21 06:21:03;;;;;;;23.87;13.90;;;;;;;7.75;100.00;99321.50;5026479;28;20225;-88
2022/04/21 06:23:30;;;;;;;26.73;14.00;;;;;;;8.24;100.00;99383.78;5035564;28;21245;-88
2022/04/21 06:25:59;;;;;;;26.17;15.43;;;;;;;6.52;100.00;99041.38;5037480;28;20437;-88
2022/04/21 06:28:29;;;;;;;27.33;16.27;;;;;;;5.63;100.00;98863.13;5040734;28;20421;-89
2022/04/21 06:30:55;;;;;;;24.40;16.00;;;;;;;7.26;100.00;99235.75;5037667;28;20566;-89
2022/04/21 06:33:21;;;;;;;22.80;14.20;;;;;;;8.93;100.00;99406.72;5035147;28;20440;-89
2022/04/21 06:35:47;;;;;;;23.40;14.00;;;;;;;9.18;100.00;99408.78;5035807;28;20213;-89
2022/04/21 06:38:13;;;;;;;21.03;13.53;;;;;;;7.74;100.00;99121.59;5037182;28;20580;-88
2022/04/21 06:40:39;;;;;;;20.57;12.47;;;;;;;8.61;100.00;99306.69;5037783;28;20269;-90
2022/04/21 06:48:01;;;;;;;25.73;15.53;;;;;;;8.80;100.00;99427.97;5038683;28;20501;-90
2022/04/21 06:48:40;;;;;;;24.80;14.83;;;;;;;7.00;100.00;99120.25;5039507;28;20439;-90
2022/04/21 06:51:05;;;;;;;25.47;14.47;;;;;;;8.45;100.00;99337.00;5037911;28;20253;-90
2022/04/21 06:53:31;;;;;;;26.40;15.80;;;;;;;8.20;100.00;99172.59;5036388;28;20189;-89
2022/04/21 06:55:57;;;;;;;26.40;15.23;;;;;;;7.84;100.00;99072.50;5034901;28;20274;-89
2022/04/21 06:58:22;;;;;;;26.77;15.73;;;;;;;8.07;100.00;99046.75;5034413;28;20190;-88
2022/04/21 07:00:48;;;;;;;30.40;17.47;;;;;;;9.19;100.00;99204.31;5033017;28;20274;-89
2022/04/21 07:03:13;;;;;;;28.70;16.77;;;;;;;8.74;100.00;99219.81;5038155;28;20186;-91
2022/04/21 07:05:39;;;;;;;28.73;16.60;;;;;;;9.96;100.00;99399.94;5036153;28;20194;-90
2022/04/21 07:08:06;;;;;;;30.50;18.07;;;;;;;9.58;100.00;99391.38;5034888;28;20239;-87
2022/04/21 07:10:32;;;;;;;23.00;14.73;;;;;;;8.05;100.00;99247.44;5035152;28;20273;-89
2022/04/21 07:12:57;;;;;;;27.27;15.47;;;;;;;9.18;100.00;99408.78;5034165;28;20194;-90
2022/04/21 07:15:23;;;;;;;24.70;15.20;;;;;;;9.04;100.00;99379.50;5033557;28;20193;-88
2022/04/21 07:17:48;;;;;;;24.53;14.40;;;;;;;8.48;100.00;99299.31;5033716;28;20178;-89
2022/04/21 07:20:14;;;;;;;26.90;14.90;;;;;;;8.24;100.00;99245.09;5029886;28;20220;-88
2022/04/21 07:22:40;;;;;;;26.63;16.53;;;;;;;8.82;100.00;99272.41;5041102;28;20540;-88
2022/04/21 07:25:09;;;;;;;21.47;12.90;;;;;;;7.75;100.00;99128.31;5040641;28;20186;-89
2022/04/21 07:27:37;;;;;;;27.70;17.73;;;;;;;9.21;100.00;99339.09;5039816;28;20193;-87
2022/04/21 07:30:04;;;;;;;21.13;13.57;;;;;;;8.31;100.00;99181.59;5035435;28;20371;-89
2022/04/21 07:32:29;;;;;;;19.47;13.30;;;;;;;9.47;100.00;99378.25;5034811;28;20178;-90
2022/04/21 07:34:54;;;;;;;18.83;12.60;;;;;;;9.58;100.00;99374.56;5034005;28;20185;-88
2022/04/21 07:37:20;;;;;;;17.40;11.47;;;;;;;8.03;100.00;99117.97;5031896;28;20209;-89
2022/04/21 07:39:45;;;;;;;20.70;13.97;;;;;;;9.56;100.00;99262.41;5034482;28;20280;-89
2022/04/21 07:42:12;;;;;;;18.00;11.70;;;;;;;9.16;100.00;99176.38;5033630;28;20194;-89
2022/04/21 07:44:38;;;;;;;23.27;15.83;;;;;;;10.06;100.00;99260.47;5035971;28;20195;-89
2022/04/21 07:47:05;;;;;;;18.03;11.37;;;;;;;10.46;100.00;99392.13;5036169;28;20201;-89
2022/04/21 07:49:46;;;;;;;19.07;11.80;;;;;;;8.76;100.00;99061.78;5034093;28;20210;-89
2022/04/21 07:55:06;;;;;;;24.27;15.77;;;;;;;9.33;100.00;99121.56;5036810;28;20204;-90
2022/04/21 07:57:32;;;;;;;19.70;13.03;;;;;;;9.24;100.00;99090.84;5033390;28;20178;-87
2022/04/21 07:59:57;;;;;;;16.93;11.20;;;;;;;9.48;100.00;99200.56;5033293;28;20235;-89
2022/04/21 08:02:23;;;;;;;22.20;13.47;;;;;;;7.95;100.00;98925.19;5036705;28;20568;-89
2022/04/21 08:04:49;;;;;;;17.80;11.40;;;;;;;11.62;100.00;99396.13;5034922;28;20217;-88
2022/04/21 08:07:14;;;;;;;17.80;11.73;;;;;;;10.50;100.00;99276.69;5036070;28;20192;-88
2022/04/21 08:09:40;;;;;;;20.93;13.53;;;;;;;9.41;100.00;99095.84;5033221;28;21071;-89
2022/04/21 08:12:07;;;;;;;16.17;11.40;;;;;;;11.56;100.00;99302.09;5034350;28;20553;-89
2022/04/21 08:14:33;;;;;;;19.60;12.93;;;;;;;12.16;99.51;99379.66;5034372;28;20220;-88
2022/04/21 08:16:58;;;;;;;15.67;8.77;;;;;;;11.32;100.00;99386.47;5034864;28;20197;-89
2022/04/21 08:19:24;;;;;;;13.90;9.90;;;;;;;10.63;100.00;99243.47;5036092;28;20937;-88
2022/04/21 08:21:49;;;;;;;15.33;9.97;;;;;;;10.80;100.00;99277.06;5024838;28;20238;-87
2022/04/21 08:32:34;;;;;;;16.27;10.57;;;;;;;10.59;98.64;99113.41;5034585;28;20593;-90
2022/04/21 08:35:01;;;;;;;17.07;11.27;;;;;;;13.20;97.08;99407.91;5035745;28;20297;-90
2022/04/21 08:37:27;;;;;;;15.33;11.10;;;;;;;11.71;94.42;99027.97;5034316;28;20586;-90
2022/04/21 08:39:53;;;;;;;16.73;11.97;;;;;;;13.21;94.24;99302.84;5034937;28;20212;-88
2022/04/21 08:42:19;;;;;;;15.10;10.87;;;;;;;13.46;93.28;99269.75;5035210;28;20198;-88
2022/04/21 08:44:45;;;;;;;17.97;12.10;;;;;;;14.36;93.42;99381.84;5035401;28;20915;-88
2022/04/21 08:47:14;;;;;;;13.03;9.50;;;;;;;13.29;91.96;99293.81;5037036;28;20186;-89
2022/04/21 08:49:43;;;;;;;13.37;9.87;;;;;;;13.41;91.57;99245.88;5033875;28;20225;-88
2022/04/21 08:52:11;;;;;;;15.13;9.97;;;;;;;13.47;71.45;99274.03;5034387;28;20182;-89
2022/04/21 08:54:37;;;;;;;14.70;10.40;;;;;;;12.65;70.37;99102.91;5035781;28;20181;-90
2022/04/21 08:57:03;;;;;;;14.20;9.93;;;;;;;14.54;70.00;99384.91;5034602;28;20220;-87
2022/04/21 08:59:29;;;;;;;15.80;10.70;;;;;;;13.59;69.38;99177.75;5035892;28;20181;-89
2022/04/21 09:01:58;;;;;;;20.53;14.83;;;;;;;13.87;69.58;99222.59;5034072;28;20197;-90
2022/04/21 09:04:24;;;;;;;16.53;11.70;;;;;;;14.81;70.00;99374.59;5034783;28;20194;-88
2022/04/21 09:06:49;;;;;;;14.87;11.20;;;;;;;13.89;68.95;99174.31;5034288;28;20190;-91
2022/04/21 09:09:22;;;;;;;12.43;9.57;;;;;;;13.89;70.89;99360.06;5039595;28;20564;-89
2022/04/21 09:11:53;;;;;;;11.20;8.70;;;;;;;12.57;70.96;99118.72;5034865;28;20595;-88
2022/04/21 09:14:20;;;;;;;12.47;8.97;;;;;;;14.35;68.35;99233.28;5033321;28;20178;-88
2022/04/21 09:16:46;;;;;;;11.00;8.73;;;;;;;12.17;65.28;98840.84;5015977;28;20289;-87
2022/04/21 09:19:13;;;;;;;15.40;10.10;;;;;;;13.93;66.92;99153.19;5035085;28;20177;-88
2022/04/21 09:21:40;;;;;;;17.33;10.20;;;;;;;15.41;66.66;99359.97;5023649;28;20382;-88
2022/04/21 09:24:25;;;;;;;14.40;10.07;;;;;;;15.93;66.08;99363.75;5030168;28;20236;-89
2022/04/21 09:26:52;;;;;;;10.97;8.73;;;;;;;12.56;64.64;98954.47;5015164;28;20189;-87
2022/04/21 09:29:33;;;;;;;20.20;12.60;;;;;;;15.25;64.36;99357.03;5024965;28;20181;-89
2022/04/21 09:32:02;;;;;;;16.10;11.00;;;;;;;15.49;64.40;99313.44;5028013;28;20187;-89
2022/04/21 09:34:29;;;;;;;14.50;10.50;;;;;;;14.30;61.22;99081.16;5027746;28;20193;-91
2022/04/21 09:36:58;;;;;;;13.43;9.10;;;;;;;13.90;61.32;99056.44;5039431;28;20213;-90
2022/04/21 09:39:24;;;;;;;10.10;7.97;;;;;;;15.16;58.34;99221.66;5038929;28;20186;-92
2022/04/21 09:41:54;;;;;;;9.20;7.27;;;;;;;15.86;58.02;99285.31;5037710;28;20182;-88
2022/04/21 09:47:07;;;;;;;10.20;8.00;;;;;;;15.49;56.68;99193.53;5036158;28;20246;-91
2022/04/21 09:49:42;;;;;;;12.20;8.73;;;;;;;14.48;57.22;99029.00;5032726;28;20238;-88
2022/04/21 09:52:08;;;;;;;12.33;8.97;;;;;;;15.38;56.16;99156.69;5041927;28;20177;-90
2022/04/21 09:54:36;;;;;;;11.60;8.17;;;;;;;16.67;56.35;99341.47;5041189;28;20186;-90
2022/04/21 09:57:02;;;;;;;13.00;9.67;;;;;;;16.68;56.56;99322.72;5040912;28;20213;-89
2022/04/21 09:59:28;;;;;;;16.07;10.70;;;;;;;16.30;56.79;99247.88;5040767;28;20228;-89
2022/04/21 10:01:54;;;;;;;15.83;11.07;;;;;;;13.73;55.81;98780.41;5042204;28;20241;-90
2022/04/21 10:04:22;;;;;;;18.60;11.37;;;;;;;13.86;55.76;98787.47;5041381;28;20182;-89
2022/04/21 10:06:48;;;;;;;13.80;10.73;;;;;;;15.24;54.65;98969.38;5040224;28;20186;-89
2022/04/21 10:09:18;;;;;;;15.60;11.27;;;;;;;14.62;55.75;98988.53;5042524;28;20197;-90
2022/04/21 10:11:44;;;;;;;17.67;12.63;;;;;;;15.93;56.48;99245.47;5032712;28;20195;-91
2022/04/21 10:14:17;;;;;;;14.53;10.37;;;;;;;16.87;55.28;99308.56;5027407;28;20191;-89
2022/04/21 10:16:44;;;;;;;16.67;10.93;;;;;;;14.84;54.55;98911.69;5020698;28;20212;-88
2022/04/21 10:19:12;;;;;;;18.43;10.60;;;;;;;15.84;54.12;99097.22;5038564;28;20185;-90
2022/04/21 10:21:42;;;;;;;17.13;11.10;;;;;;;17.02;54.58;99325.03;5030922;28;20225;-89
2022/04/21 10:24:09;;;;;;;17.33;12.20;;;;;;;17.56;53.87;99319.06;5043237;28;20216;-88
2022/04/21 10:26:42;;;;;;;17.83;12.20;;;;;;;17.94;53.12;99333.25;5044353;28;20201;-89
2022/04/21 10:29:13;;;;;;;16.97;12.50;;;;;;;16.93;53.60;99093.84;5041274;28;20189;-88
2022/04/21 10:31:59;;;;;;;15.97;10.60;;;;;;;18.75;51.11;99312.03;5024859;28;20191;-89
2022/04/21 10:34:40;;;;;;;19.70;12.43;;;;;;;18.44;50.76;99309.94;5044547;28;20174;-88
2022/04/21 10:37:08;;;;;;;16.73;12.00;;;;;;;17.36;50.02;99144.72;5049013;28;20233;-89
2022/04/21 10:39:34;;;;;;;17.70;10.63;;;;;;;15.52;50.62;98793.00;5050219;28;20217;-89
2022/04/21 10:42:15;;;;;;;12.97;10.30;;;;;;;17.01;48.96;99026.63;5049612;28;20188;-88
2022/04/21 10:44:48;;;;;;;16.80;11.63;;;;;;;17.91;48.29;99127.50;5050158;28;20265;-89
2022/04/21 10:48:01;;;;;;;14.40;9.53;;;;;;;17.20;48.00;99140.25;5038669;28;20194;-90
2022/04/21 10:50:31;;;;;;;12.87;9.70;;;;;;;15.87;47.22;98949.22;4957379;28;20224;-89
2022/04/21 10:58:36;;;;;;;18.43;11.47;;;;;;;18.14;48.80;99302.78;4991622;28;20194;-89
2022/04/21 11:01:10;;;;;;;14.87;10.97;;;;;;;18.01;48.64;99312.03;4967630;28;20207;-88
2022/04/21 11:03:38;;;;;;;17.57;11.43;;;;;;;17.28;48.88;99179.59;4969816;28;20199;-91
2022/04/21 11:06:12;;;;;;;18.47;11.87;;;;;;;17.15;49.67;99181.97;4970693;28;20253;-90
2022/04/21 11:08:41;;;;;;;22.47;13.53;;;;;;;17.16;51.41;99222.06;4969631;28;20188;-91
2022/04/21 11:11:07;;;;;;;20.20;13.40;;;;;;;15.65;51.43;99085.81;4966735;28;20196;-90
2022/04/21 11:13:50;;;;;;;20.23;13.07;;;;;;;17.24;50.71;99302.34;4968190;28;20283;-90
2022/04/21 11:16:40;;;;;;;18.50;12.27;;;;;;;16.84;51.29;99299.13;4958820;28;20219;-90
2022/04/21 11:19:34;;;;;;;20.23;12.97;;;;;;;17.18;51.84;99294.56;4961755;28;20337;-92
2022/04/21 11:22:11;;;;;;;25.47;13.87;;;;;;;17.58;51.55;99291.78;4952111;28;20236;-89
2022/04/21 11:24:55;;;;;;;23.43;14.20;;;;;;;17.81;52.18;99282.72;4960452;28;20187;-90
2022/04/21 11:27:21;;;;;;;20.10;12.03;;;;;;;17.58;50.72;99238.03;5029070;28;20253;-91
2022/04/21 11:29:48;;;;;;;18.70;11.60;;;;;;;17.25;49.51;99068.69;5032289;28;20183;-89
2022/04/21 11:32:19;;;;;;;21.43;12.67;;;;;;;17.82;51.74;99179.47;5029178;28;20882;-91
2022/04/21 11:35:11;;;;;;;17.27;11.90;;;;;;;19.02;50.58;99268.66;5031528;28;20218;-89
2022/04/21 11:37:54;;;;;;;18.73;12.20;;;;;;;19.23;48.74;99265.38;5040932;28;20255;-90
2022/04/21 11:40:22;;;;;;;15.97;12.20;;;;;;;19.16;49.79;99213.16;5038756;28;20186;-91
2022/04/21 11:42:49;;;;;;;17.60;12.20;;;;;;;15.97;50.29;98790.22;5036942;28;20182;-91
2022/04/21 11:45:22;;;;;;;16.27;11.57;;;;;;;16.76;52.02;99018.63;5028394;28;20177;-89
2022/04/21 11:47:48;;;;;;;15.97;11.37;;;;;;;15.31;52.61;98737.44;5035888;28;20912;-90
2022/04/21 11:50:23;;;;;;;14.37;11.17;;;;;;;15.28;54.02;98844.50;5019590;28;20239;-91
2022/04/21 11:52:58;;;;;;;18.07;11.40;;;;;;;15.19;52.97;98670.94;4996952;28;20174;-90
2022/04/21 11:55:28;;;;;;;16.20;11.10;;;;;;;14.86;53.71;98710.41;4996188;28;20268;-89
2022/04/21 11:58:00;;;;;;;18.23;12.93;;;;;;;16.63;53.79;98976.72;4996739;28;20253;-89
2022/04/21 12:08:50;;;;;;;14.43;9.77;;;;;;;16.11;51.00;98693.34;4999971;28;20222;-90
2022/04/21 12:11:26;;;;;;;12.93;9.33;;;;;;;15.14;49.63;98616.50;5154627;23;20336;-92
2022/04/21 12:14:16;;;;;;;12.53;8.80;;;;;;;16.10;49.73;98663.53;5010306;28;20233;-90
2022/04/21 12:16:46;;;;;;;11.20;9.07;;;;;;;17.19;47.06;98667.00;5030778;28;20257;-93
2022/04/21 12:19:16;;;;;;;12.47;9.30;;;;;;;17.03;47.86;98686.53;5013886;28;20528;-91
2022/04/21 12:21:55;;;;;;;12.73;10.33;;;;;;;19.53;49.07;99180.03;4987554;28;20750;-89